createdAt,value
2023-04-09T00:02:26.707Z,9.14
2023-04-09T00:04:56.861Z,9.18
2023-04-09T00:07:26.985Z,9.20
2023-04-09T00:09:57.208Z,9.18
2023-04-09T00:12:30.537Z,9.11
2023-04-09T00:15:00.852Z,9.09
2023-04-09T00:17:31.107Z,9.06
2023-04-09T00:20:01.433Z,9.03
2023-04-09T00:22:31.563Z,8.98
2023-04-09T00:25:01.723Z,8.96
2023-04-09T00:27:34.435Z,8.90
2023-04-09T00:30:04.524Z,8.85
2023-04-09T00:32:40.506Z,8.81
2023-04-09T00:35:12.055Z,8.78
2023-04-09T00:37:42.209Z,8.72
2023-04-09T00:40:13.088Z,8.67
2023-04-09T00:42:45.886Z,8.65
2023-04-09T00:45:15.946Z,8.59
2023-04-09T00:47:46.769Z,8.54
2023-04-09T00:50:17.486Z,8.51
2023-04-09T00:52:48.291Z,8.43
2023-04-09T00:55:18.675Z,8.40
2023-04-09T00:57:51.464Z,8.41
2023-04-09T01:00:21.980Z,8.42
2023-04-09T01:02:54.072Z,8.42
2023-04-09T01:05:24.440Z,8.41
2023-04-09T01:08:06.849Z,8.37
2023-04-09T01:10:41.556Z,8.33
2023-04-09T01:13:17.567Z,8.28
2023-04-09T01:15:55.263Z,8.25
2023-04-09T01:18:30.759Z,8.19
2023-04-09T01:21:03.739Z,8.11
2023-04-09T01:23:44.811Z,8.05
2023-04-09T01:26:24.485Z,8.01
2023-04-09T01:29:02.844Z,7.94
2023-04-09T01:31:35.542Z,7.88
2023-04-09T01:34:06.616Z,7.84
2023-04-09T01:36:38.592Z,7.69
2023-04-09T01:39:09.791Z,7.66
2023-04-09T01:41:41.048Z,7.71
2023-04-09T01:44:15.459Z,7.78
2023-04-09T01:46:45.878Z,7.81
2023-04-09T01:49:16.510Z,7.78
2023-04-09T01:51:47.282Z,7.76
2023-04-09T01:54:18.823Z,7.70
2023-04-09T01:56:51.641Z,7.66
2023-04-09T01:59:24.622Z,7.67
2023-04-09T02:01:59.196Z,7.68
2023-04-09T02:04:34.204Z,7.68
2023-04-09T02:07:09.890Z,7.66
2023-04-09T02:09:43.085Z,7.66
2023-04-09T02:12:15.931Z,7.66
2023-04-09T02:14:49.580Z,7.66
2023-04-09T02:17:20.188Z,7.60
2023-04-09T02:19:51.979Z,7.50
2023-04-09T02:22:22.611Z,7.46
2023-04-09T02:24:52.780Z,7.46
2023-04-09T02:27:23.031Z,7.46
2023-04-09T02:29:55.846Z,7.41
2023-04-09T02:32:26.874Z,7.40
2023-04-09T02:34:57.007Z,7.40
2023-04-09T02:37:27.124Z,7.42
2023-04-09T02:39:57.463Z,7.42
2023-04-09T02:42:27.637Z,7.37
2023-04-09T02:45:00.308Z,7.35
2023-04-09T02:47:30.889Z,7.34
2023-04-09T02:50:01.535Z,7.28
2023-04-09T02:52:34.726Z,7.24
2023-04-09T02:55:05.120Z,7.19
2023-04-09T02:57:36.571Z,7.18
2023-04-09T03:00:11.050Z,7.10
2023-04-09T03:02:41.507Z,7.03
2023-04-09T03:05:12.270Z,6.98
2023-04-09T03:07:42.881Z,6.96
2023-04-09T03:10:13.786Z,6.90
2023-04-09T03:12:44.749Z,6.91
2023-04-09T03:15:17.619Z,6.98
2023-04-09T03:17:47.748Z,7.04
2023-04-09T03:20:17.939Z,7.10
2023-04-09T03:22:48.123Z,7.13
2023-04-09T03:25:27.353Z,7.25
2023-04-09T03:27:58.579Z,7.30
2023-04-09T03:30:47.135Z,7.31
2023-04-09T03:33:19.736Z,7.35
2023-04-09T03:36:01.058Z,7.43
2023-04-09T03:39:00.635Z,7.39
2023-04-09T03:41:37.820Z,7.37
2023-04-09T03:44:12.429Z,7.39
2023-04-09T03:47:00.862Z,7.48
2023-04-09T03:49:32.311Z,7.50
2023-04-09T03:52:10.830Z,7.57
2023-04-09T03:54:46.381Z,7.61
2023-04-09T03:57:21.269Z,7.63
2023-04-09T03:59:54.274Z,7.64
2023-04-09T04:02:33.849Z,7.66
2023-04-09T04:05:08.530Z,7.69
2023-04-09T04:07:47.933Z,7.70
2023-04-09T04:10:23.592Z,7.71
2023-04-09T04:12:53.867Z,7.68
2023-04-09T04:15:44.403Z,7.55
2023-04-09T04:18:19.644Z,7.50
2023-04-09T04:20:53.820Z,7.54
2023-04-09T04:23:24.077Z,7.60
2023-04-09T04:26:01.001Z,7.65
2023-04-09T04:28:36.022Z,7.68
2023-04-09T04:31:11.646Z,7.70
2023-04-09T04:33:45.828Z,7.78
2023-04-09T04:36:18.751Z,7.89
2023-04-09T04:38:54.992Z,8.00
2023-04-09T04:41:33.156Z,8.02
2023-04-09T04:44:16.784Z,8.02
2023-04-09T04:46:47.193Z,8.07
2023-04-09T04:49:22.633Z,8.08
2023-04-09T04:51:54.354Z,8.14
2023-04-09T04:54:24.501Z,8.26
2023-04-09T04:56:59.080Z,8.36
2023-04-09T04:59:36.021Z,8.43
2023-04-09T05:02:08.762Z,8.57
2023-04-09T05:04:52.103Z,8.70
2023-04-09T05:07:26.114Z,8.78
2023-04-09T05:09:58.831Z,8.75
2023-04-09T05:12:30.455Z,8.80
2023-04-09T05:15:00.596Z,8.86
2023-04-09T05:17:30.790Z,8.95
2023-04-09T05:20:03.672Z,9.07
2023-04-09T05:22:46.606Z,9.21
2023-04-09T05:25:17.341Z,9.29
2023-04-09T05:27:49.209Z,9.28
2023-04-09T05:30:19.427Z,9.26
2023-04-09T05:32:50.175Z,9.25
2023-04-09T05:35:23.347Z,9.25
2023-04-09T05:37:53.498Z,9.21
2023-04-09T05:40:24.646Z,9.24
2023-04-09T05:42:56.232Z,9.22
2023-04-09T05:45:39.694Z,9.26
2023-04-09T05:48:10.193Z,9.37
2023-04-09T05:50:53.715Z,9.50
2023-04-09T05:53:27.198Z,9.58
2023-04-09T05:55:57.457Z,9.54
2023-04-09T05:58:32.214Z,9.55
2023-04-09T06:01:05.311Z,9.60
2023-04-09T06:03:35.492Z,9.64
2023-04-09T06:06:08.563Z,9.67
2023-04-09T06:08:38.633Z,9.70
2023-04-09T06:11:12.385Z,9.67
2023-04-09T06:13:57.454Z,9.68
2023-04-09T06:16:27.732Z,9.79
2023-04-09T06:18:57.846Z,9.81
2023-04-09T06:21:31.372Z,9.86
2023-04-09T06:24:01.424Z,9.87
2023-04-09T06:26:32.138Z,9.91
2023-04-09T06:29:02.247Z,9.93
2023-04-09T06:31:32.441Z,9.98
2023-04-09T06:34:09.032Z,10.09
2023-04-09T06:36:41.731Z,10.15
2023-04-09T06:39:11.880Z,10.22
2023-04-09T06:41:42.010Z,10.28
2023-04-09T06:44:24.876Z,10.34
2023-04-09T06:46:55.095Z,10.39
2023-04-09T06:49:25.366Z,10.43
2023-04-09T06:51:58.226Z,10.43
2023-04-09T06:54:28.360Z,10.41
2023-04-09T06:56:58.428Z,10.44
2023-04-09T06:59:28.542Z,10.39
2023-04-09T07:01:58.770Z,10.31
2023-04-09T07:04:29.060Z,10.29
2023-04-09T07:07:01.987Z,10.32
2023-04-09T07:09:32.118Z,10.36
2023-04-09T07:12:02.309Z,10.41
2023-04-09T07:14:32.371Z,10.48
2023-04-09T07:17:02.527Z,10.54
2023-04-09T07:19:32.762Z,10.58
2023-04-09T07:22:05.521Z,10.67
2023-04-09T07:24:35.766Z,10.76
2023-04-09T07:27:07.106Z,10.78
2023-04-09T07:29:37.666Z,10.85
2023-04-09T07:32:08.162Z,10.88
2023-04-09T07:34:40.883Z,10.85
2023-04-09T07:37:14.048Z,10.77
2023-04-09T07:39:44.088Z,10.77
2023-04-09T07:42:14.246Z,10.83
2023-04-09T07:44:44.287Z,10.94
2023-04-09T07:47:14.524Z,11.08
2023-04-09T07:49:44.885Z,11.13
2023-04-09T07:52:17.654Z,11.16
2023-04-09T07:54:47.935Z,11.28
2023-04-09T07:57:18.187Z,11.39
2023-04-09T07:59:48.305Z,11.36
2023-04-09T08:02:18.647Z,11.42
2023-04-09T08:04:48.928Z,11.44
2023-04-09T08:07:22.021Z,11.40
2023-04-09T08:09:52.131Z,11.37
2023-04-09T08:12:22.222Z,11.39
2023-04-09T08:14:52.833Z,11.45
2023-04-09T08:17:23.468Z,11.47
2023-04-09T08:19:53.662Z,11.47
2023-04-09T08:22:26.494Z,11.38
2023-04-09T08:24:57.546Z,11.37
2023-04-09T08:27:28.359Z,11.47
2023-04-09T08:29:58.933Z,11.48
2023-04-09T08:32:29.568Z,11.43
2023-04-09T08:34:59.778Z,11.47
2023-04-09T08:37:35.327Z,11.59
2023-04-09T08:40:09.681Z,11.56
2023-04-09T08:42:44.835Z,11.46
2023-04-09T08:45:19.146Z,11.59
2023-04-09T08:47:52.446Z,11.73
2023-04-09T08:50:22.918Z,11.88
2023-04-09T08:52:57.369Z,12.02
2023-04-09T08:55:27.684Z,12.13
2023-04-09T08:57:58.392Z,12.25
2023-04-09T09:00:28.472Z,12.28
2023-04-09T09:03:06.600Z,12.28
2023-04-09T09:05:41.074Z,12.20
2023-04-09T09:08:15.642Z,12.28
2023-04-09T09:10:48.541Z,12.44
2023-04-09T09:16:16.352Z,12.69
2023-04-09T09:18:48.462Z,12.69
2023-04-09T09:21:20.254Z,12.66
2023-04-09T09:23:53.546Z,12.56
2023-04-09T09:26:26.658Z,12.49
2023-04-09T09:28:59.348Z,12.45
2023-04-09T09:31:29.768Z,12.42
2023-04-09T09:34:01.284Z,12.40
2023-04-09T09:36:35.287Z,12.53
2023-04-09T09:39:10.555Z,12.62
2023-04-09T09:41:41.386Z,12.59
2023-04-09T09:44:12.826Z,12.70
2023-04-09T09:46:44.040Z,12.80
2023-04-09T09:49:14.136Z,12.93
2023-04-09T09:51:44.860Z,12.89
2023-04-09T09:54:24.718Z,12.99
2023-04-09T09:56:58.414Z,13.15
2023-04-09T09:59:35.396Z,13.39
2023-04-09T10:02:09.452Z,13.51
2023-04-09T10:04:40.768Z,13.71
2023-04-09T10:07:11.108Z,13.92
2023-04-09T10:09:45.813Z,14.09
2023-04-09T10:12:16.661Z,14.07
2023-04-09T10:14:47.888Z,13.94
2023-04-09T10:17:18.140Z,14.06
2023-04-09T10:19:59.522Z,14.39
2023-04-09T10:22:35.021Z,14.67
2023-04-09T10:25:09.588Z,14.78
2023-04-09T10:27:39.955Z,14.84
2023-04-09T10:30:11.487Z,14.91
2023-04-09T10:32:42.814Z,15.01
2023-04-09T10:35:13.036Z,15.21
2023-04-09T10:37:52.604Z,15.90
2023-04-09T10:40:25.814Z,16.20
2023-04-09T10:42:57.937Z,16.36
2023-04-09T10:45:28.891Z,16.43
2023-04-09T10:47:59.092Z,16.56
2023-04-09T10:50:32.374Z,16.72
2023-04-09T10:53:02.535Z,16.87
2023-04-09T10:55:44.561Z,17.06
2023-04-09T10:58:15.206Z,17.22
2023-04-09T11:00:46.716Z,17.25
2023-04-09T11:03:24.582Z,17.37
2023-04-09T11:06:02.655Z,17.48
2023-04-09T11:08:34.418Z,17.44
2023-04-09T11:11:07.808Z,19.12
2023-04-09T11:13:37.845Z,21.55
2023-04-09T11:16:08.782Z,23.16
2023-04-09T11:18:39.175Z,24.35
2023-04-09T11:21:10.434Z,24.96
2023-04-09T11:23:40.568Z,25.23
2023-04-09T11:26:13.783Z,25.60
2023-04-09T11:28:46.245Z,26.05
2023-04-09T11:31:16.858Z,26.29
2023-04-09T11:33:49.656Z,26.35
2023-04-09T11:36:20.120Z,25.85
2023-04-09T11:38:59.393Z,25.04
2023-04-09T11:41:43.876Z,24.40
2023-04-09T11:44:14.184Z,23.88
2023-04-09T11:46:45.563Z,23.74
2023-04-09T11:49:16.478Z,23.94
2023-04-09T11:51:47.243Z,25.16
2023-04-09T11:54:20.025Z,26.77
2023-04-09T11:56:56.197Z,28.65
2023-04-09T11:59:26.416Z,29.80
2023-04-09T12:01:56.568Z,30.22
2023-04-09T12:04:27.129Z,30.42
2023-04-09T12:07:00.747Z,30.65
2023-04-09T12:09:31.086Z,30.82
2023-04-09T12:12:03.746Z,31.41
2023-04-09T12:14:33.783Z,31.63
2023-04-09T12:17:03.959Z,32.16
2023-04-09T12:19:34.058Z,32.62
2023-04-09T12:22:04.157Z,33.05
2023-04-09T12:24:34.338Z,33.51
2023-04-09T12:27:07.189Z,33.70
2023-04-09T12:29:37.239Z,33.81
2023-04-09T12:32:08.877Z,33.72
2023-04-09T12:34:39.084Z,34.10
2023-04-09T12:37:09.228Z,34.19
2023-04-09T12:39:39.290Z,34.49
2023-04-09T12:42:11.972Z,34.58
2023-04-09T12:44:42.043Z,34.07
2023-04-09T12:47:12.348Z,34.25
2023-04-09T12:49:45.342Z,34.49
2023-04-09T12:52:15.737Z,34.47
2023-04-09T12:54:46.660Z,34.29
2023-04-09T12:57:20.861Z,34.40
2023-04-09T12:59:51.130Z,34.69
2023-04-09T13:02:21.591Z,34.82
2023-04-09T13:04:53.065Z,34.80
2023-04-09T13:07:23.683Z,34.99
2023-04-09T13:09:54.098Z,35.28
2023-04-09T13:12:27.286Z,35.42
2023-04-09T13:14:59.392Z,35.64
2023-04-09T13:17:29.663Z,35.54
2023-04-09T13:19:59.754Z,34.84
2023-04-09T13:22:29.813Z,34.59
2023-04-09T13:24:59.813Z,34.71
2023-04-09T13:27:32.638Z,35.02
2023-04-09T13:30:02.837Z,35.52
2023-04-09T13:32:33.100Z,35.49
2023-04-09T13:35:03.388Z,35.36
2023-04-09T13:37:33.513Z,35.49
2023-04-09T13:40:04.232Z,35.77
2023-04-09T13:42:37.762Z,35.80
2023-04-09T13:45:09.292Z,36.02
2023-04-09T13:47:39.861Z,35.78
2023-04-09T13:50:18.310Z,35.71
2023-04-09T13:52:48.720Z,35.32
2023-04-09T13:55:19.216Z,35.14
2023-04-09T13:57:51.986Z,34.90
2023-04-09T14:00:23.917Z,34.69
2023-04-09T14:02:54.407Z,34.82
2023-04-09T14:05:24.564Z,34.89
2023-04-09T14:07:54.705Z,35.00
2023-04-09T14:10:25.737Z,34.97
2023-04-09T14:12:58.465Z,34.63
2023-04-09T14:15:28.521Z,34.25
2023-04-09T14:18:01.198Z,33.25
2023-04-09T14:20:33.421Z,31.73
2023-04-09T14:23:03.538Z,30.01
2023-04-09T14:25:36.787Z,27.89
2023-04-09T14:28:09.527Z,25.88
2023-04-09T14:30:39.642Z,24.26
2023-04-09T14:33:09.876Z,23.00
2023-04-09T14:35:42.697Z,22.09
2023-04-09T14:38:12.861Z,21.40
2023-04-09T14:40:43.178Z,20.82
2023-04-09T14:43:18.639Z,20.30
2023-04-09T14:45:48.759Z,20.06
2023-04-09T14:48:19.523Z,19.97
2023-04-09T14:50:51.458Z,19.79
2023-04-09T14:53:21.677Z,19.65
2023-04-09T14:55:51.810Z,19.47
2023-04-09T14:58:24.508Z,19.26
2023-04-09T15:00:54.935Z,19.14
2023-04-09T15:03:25.522Z,19.00
2023-04-09T15:05:55.979Z,18.89
2023-04-09T15:08:26.532Z,18.74
2023-04-09T15:10:59.552Z,18.59
2023-04-09T15:13:32.881Z,18.48
2023-04-09T15:16:10.202Z,18.46
2023-04-09T15:18:42.667Z,18.34
2023-04-09T15:21:15.737Z,18.26
2023-04-09T15:23:46.338Z,18.24
2023-04-09T15:26:17.176Z,18.22
2023-04-09T15:28:49.908Z,18.26
2023-04-09T15:31:22.947Z,18.22
2023-04-09T15:33:53.050Z,18.15
2023-04-09T15:36:23.444Z,18.04
2023-04-09T15:38:56.411Z,18.03
2023-04-09T15:41:27.088Z,18.03
2023-04-09T15:44:00.037Z,17.98
2023-04-09T15:46:30.188Z,17.93
2023-04-09T15:49:00.593Z,17.84
2023-04-09T15:51:31.255Z,17.76
2023-04-09T15:54:01.890Z,17.73
2023-04-09T15:56:32.236Z,17.55
2023-04-09T15:59:05.529Z,17.42
2023-04-09T16:01:39.230Z,17.32
2023-04-09T16:04:12.435Z,17.34
2023-04-09T16:06:42.857Z,17.40
2023-04-09T16:09:16.668Z,17.37
2023-04-09T16:11:46.843Z,17.33
2023-04-09T16:14:19.592Z,17.28
2023-04-09T16:16:50.224Z,17.21
2023-04-09T16:19:21.449Z,17.22
2023-04-09T16:21:51.597Z,17.19
2023-04-09T16:24:22.052Z,17.10
2023-04-09T16:26:52.120Z,17.04
2023-04-09T16:29:26.019Z,16.97
2023-04-09T16:31:57.162Z,16.93
2023-04-09T16:34:36.350Z,16.91
2023-04-09T16:37:07.750Z,16.85
2023-04-09T16:39:37.956Z,16.76
2023-04-09T16:42:08.673Z,16.66
2023-04-09T16:44:58.894Z,16.52
2023-04-09T16:47:29.079Z,16.48
2023-04-09T16:49:59.248Z,16.46
2023-04-09T16:52:29.566Z,16.45
2023-04-09T16:55:01.107Z,16.45
2023-04-09T16:57:31.301Z,16.45
2023-04-09T17:00:05.258Z,16.42
2023-04-09T17:02:35.788Z,16.38
2023-04-09T17:05:09.066Z,16.33
2023-04-09T17:07:39.136Z,16.30
2023-04-09T17:10:10.912Z,16.25
2023-04-09T17:12:44.356Z,16.24
2023-04-09T17:15:17.945Z,16.20
2023-04-09T17:17:51.376Z,16.17
2023-04-09T17:20:21.955Z,16.05
2023-04-09T17:22:54.285Z,15.94
2023-04-09T17:25:24.422Z,15.89
2023-04-09T17:27:54.699Z,15.83
2023-04-09T17:30:27.697Z,15.82
2023-04-09T17:32:57.854Z,15.74
2023-04-09T17:35:28.319Z,15.67
2023-04-09T17:37:58.503Z,15.61
2023-04-09T17:40:32.490Z,15.47
2023-04-09T17:43:07.671Z,15.42
2023-04-09T17:45:40.620Z,15.40
2023-04-09T17:48:23.093Z,15.39
2023-04-09T17:51:00.223Z,15.35
2023-04-09T17:53:30.636Z,15.31
2023-04-09T17:56:04.205Z,15.26
2023-04-09T17:58:42.117Z,15.21
2023-04-09T18:01:16.273Z,15.16
2023-04-09T18:03:50.067Z,15.10
2023-04-09T18:06:21.889Z,15.02
2023-04-09T18:08:54.993Z,14.96
2023-04-09T18:11:38.036Z,14.88
2023-04-09T18:14:12.278Z,14.81
2023-04-09T18:16:45.168Z,14.76
2023-04-09T18:19:22.139Z,14.71
2023-04-09T18:21:52.503Z,14.64
2023-04-09T18:24:23.136Z,14.59
2023-04-09T18:26:53.411Z,14.49
2023-04-09T18:29:33.924Z,14.45
2023-04-09T18:32:15.879Z,14.42
2023-04-09T18:34:49.487Z,14.42
2023-04-09T18:37:29.279Z,14.35
2023-04-09T18:40:07.116Z,14.32
2023-04-09T18:42:40.935Z,14.26
2023-04-09T18:45:19.672Z,14.20
2023-04-09T18:48:02.981Z,14.16
2023-04-09T18:53:32.078Z,14.06
2023-04-09T18:56:04.443Z,14.01
2023-04-09T18:58:44.921Z,13.94
2023-04-09T19:01:21.084Z,13.90
2023-04-09T19:04:00.061Z,13.85
2023-04-09T19:06:47.906Z,13.81
2023-04-09T19:09:29.920Z,13.76
2023-04-09T19:12:15.283Z,13.65
2023-04-09T19:14:56.777Z,13.57
2023-04-09T19:17:35.166Z,13.49
2023-04-09T19:20:17.202Z,13.45
2023-04-09T19:23:01.333Z,13.43
2023-04-09T19:25:35.414Z,13.45
2023-04-09T19:28:05.536Z,13.45
2023-04-09T19:30:35.627Z,13.43
2023-04-09T19:33:05.943Z,13.39
2023-04-09T19:35:40.933Z,13.33
2023-04-09T19:38:14.179Z,13.28
2023-04-09T19:40:49.703Z,13.24
2023-04-09T19:43:20.051Z,13.21
2023-04-09T19:45:50.225Z,13.18
2023-04-09T19:48:20.660Z,13.13
2023-04-09T19:50:54.868Z,13.07
2023-04-09T19:53:25.284Z,13.06
2023-04-09T19:55:55.832Z,13.03
2023-04-09T19:58:26.506Z,12.97
2023-04-09T20:00:57.181Z,12.91
2023-04-09T20:03:40.443Z,12.87
2023-04-09T20:06:14.822Z,12.87
2023-04-09T20:08:51.322Z,12.86
2023-04-09T20:11:22.063Z,12.80
2023-04-09T20:13:52.310Z,12.75
2023-04-09T20:16:22.775Z,12.70
2023-04-09T20:18:53.648Z,12.68
2023-04-09T20:21:26.600Z,12.63
2023-04-09T20:23:58.555Z,12.59
2023-04-09T20:26:28.701Z,12.55
2023-04-09T20:28:59.348Z,12.51
2023-04-09T20:31:35.095Z,12.49
2023-04-09T20:34:06.899Z,12.45
2023-04-09T20:36:42.331Z,12.43
2023-04-09T20:39:12.918Z,12.37
2023-04-09T20:41:44.445Z,12.33
2023-04-09T20:44:17.282Z,12.29
2023-04-09T20:46:50.269Z,12.19
2023-04-09T20:49:20.455Z,12.17
2023-04-09T20:51:53.235Z,12.13
2023-04-09T20:54:39.035Z,12.12
2023-04-09T20:57:13.756Z,12.06
2023-04-09T20:59:44.925Z,12.04
2023-04-09T21:02:15.520Z,11.97
2023-04-09T21:04:45.832Z,11.91
2023-04-09T21:07:57.962Z,11.90
2023-04-09T21:10:28.331Z,11.80
2023-04-09T21:13:03.764Z,11.76
2023-04-09T21:15:33.973Z,11.70
2023-04-09T21:18:04.115Z,11.64
2023-04-09T21:20:34.289Z,11.59
2023-04-09T21:23:07.568Z,11.50
2023-04-09T21:25:37.786Z,11.43
2023-04-09T21:28:22.845Z,11.43
2023-04-09T21:30:57.592Z,11.41
2023-04-09T21:33:31.463Z,11.40
2023-04-09T21:36:03.770Z,11.38
2023-04-09T21:38:45.925Z,11.38
2023-04-09T21:41:19.588Z,11.31
2023-04-09T21:43:53.110Z,11.30
2023-04-09T21:46:23.398Z,11.25
2023-04-09T21:49:17.111Z,11.23
2023-04-09T21:51:49.683Z,11.18
2023-04-09T21:54:22.578Z,11.17
2023-04-09T21:57:02.966Z,11.15
2023-04-09T21:59:42.299Z,11.16
2023-04-09T22:02:19.284Z,11.14
2023-04-09T22:04:55.754Z,11.10
2023-04-09T22:07:48.040Z,11.02
2023-04-09T22:10:34.687Z,10.99
2023-04-09T22:16:03.192Z,10.96
2023-04-09T22:18:35.123Z,10.90
2023-04-09T22:21:06.737Z,10.87
2023-04-09T22:23:41.277Z,10.87
2023-04-09T22:26:18.605Z,10.88
2023-04-09T22:28:53.305Z,10.89
2023-04-09T22:31:36.472Z,10.88
2023-04-09T22:34:20.977Z,10.84
2023-04-09T22:36:55.015Z,10.79
2023-04-09T22:39:25.148Z,10.74
2023-04-09T22:42:13.004Z,10.73
2023-04-09T22:44:43.104Z,10.68
2023-04-09T22:47:18.757Z,10.64
2023-04-09T22:49:55.758Z,10.61
2023-04-09T22:52:26.014Z,10.60
2023-04-09T22:55:02.689Z,10.58
2023-04-09T22:57:42.877Z,10.55
2023-04-09T23:00:19.132Z,10.51
2023-04-09T23:02:51.186Z,10.47
2023-04-09T23:05:21.848Z,10.44
2023-04-09T23:07:53.366Z,10.39
2023-04-09T23:10:25.427Z,10.35
2023-04-09T23:12:58.121Z,10.28
2023-04-09T23:15:33.310Z,10.26
2023-04-09T23:18:06.948Z,10.21
2023-04-09T23:20:38.278Z,10.19
2023-04-09T23:23:11.974Z,10.19
2023-04-09T23:25:47.959Z,10.18
2023-04-09T23:28:30.080Z,10.19
2023-04-09T23:31:05.326Z,10.18
2023-04-09T23:33:36.639Z,10.16
2023-04-09T23:36:07.162Z,10.14
2023-04-09T23:38:37.809Z,10.11
2023-04-09T23:41:12.120Z,10.11
2023-04-09T23:43:47.977Z,10.08
2023-04-09T23:46:24.084Z,10.05
2023-04-09T23:49:08.868Z,10.01
2023-04-09T23:51:39.846Z,9.96
2023-04-09T23:54:14.753Z,9.88
2023-04-09T23:56:45.291Z,9.87
2023-04-09T23:59:24.998Z,9.87
